createdAt,value
2022-10-01T00:00:02.424Z,3.6
2022-10-01T00:02:02.554Z,3.6
2022-10-01T00:04:02.299Z,3.6
2022-10-01T00:06:04.383Z,3.9
2022-10-01T00:08:02.348Z,3.6
2022-10-01T00:10:02.198Z,3.9
2022-10-01T00:12:02.973Z,3.6
2022-10-01T00:14:02.987Z,3.5
2022-10-01T00:16:07.194Z,3.4
2022-10-01T00:18:03.492Z,3.7
2022-10-01T00:20:02.504Z,3.6
2022-10-01T00:22:02.898Z,4.0
2022-10-01T00:24:04.724Z,3.4
2022-10-01T00:26:14.472Z,3.4
2022-10-01T00:28:02.376Z,3.5
2022-10-01T00:30:03.127Z,3.5
2022-10-01T00:32:02.303Z,3.5
2022-10-01T00:34:03.574Z,3.9
2022-10-01T00:36:03.456Z,3.5
2022-10-01T00:38:02.749Z,3.4
2022-10-01T00:40:02.407Z,3.5
2022-10-01T00:42:03.862Z,3.2
2022-10-01T00:44:12.829Z,3.3
2022-10-01T00:46:06.578Z,3.2
2022-10-01T00:48:02.780Z,3.5
2022-10-01T00:50:09.875Z,3.4
2022-10-01T00:52:05.559Z,3.6
2022-10-01T00:54:08.315Z,3.8
2022-10-01T00:56:02.326Z,3.8
2022-10-01T00:58:03.752Z,3.4
2022-10-01T01:00:07.997Z,3.3
2022-10-01T01:02:02.473Z,3.4
2022-10-01T01:04:03.025Z,3.6
2022-10-01T01:06:03.046Z,3.5
2022-10-01T01:08:04.565Z,3.6
2022-10-01T01:10:04.891Z,3.6
2022-10-01T01:12:10.980Z,3.7
2022-10-01T01:14:15.335Z,3.8
2022-10-01T01:16:09.323Z,3.9
2022-10-01T01:18:09.251Z,3.8
2022-10-01T01:20:12.864Z,4.0
2022-10-01T01:22:07.584Z,4.0
2022-10-01T01:24:10.040Z,4.3
2022-10-01T01:26:13.487Z,4.1
2022-10-01T01:28:09.027Z,4.2
2022-10-01T01:30:05.716Z,4.3
2022-10-01T01:32:14.011Z,4.4
2022-10-01T01:34:11.847Z,4.3
2022-10-01T01:36:06.930Z,4.5
2022-10-01T01:38:09.209Z,3.9
2022-10-01T01:40:06.569Z,4.2
2022-10-01T01:42:06.545Z,4.3
2022-10-01T01:44:06.480Z,4.3
2022-10-01T01:46:06.830Z,4.4
2022-10-01T01:48:04.468Z,4.6
2022-10-01T01:50:05.773Z,4.2
2022-10-01T01:52:08.131Z,4.6
2022-10-01T01:54:02.886Z,4.4
2022-10-01T01:56:02.860Z,4.4
2022-10-01T01:58:03.406Z,4.3
2022-10-01T02:00:03.530Z,4.4
2022-10-01T02:02:06.420Z,4.3
2022-10-01T02:04:05.496Z,4.1
2022-10-01T02:06:16.490Z,4.8
2022-10-01T02:08:15.884Z,4.4
2022-10-01T02:10:12.224Z,4.4
2022-10-01T02:12:13.054Z,4.6
2022-10-01T02:14:11.966Z,4.4
2022-10-01T02:16:18.564Z,4.7
2022-10-01T02:18:13.311Z,4.6
2022-10-01T02:20:08.161Z,4.3
2022-10-01T02:22:07.995Z,4.5
2022-10-01T02:24:09.120Z,4.3
2022-10-01T02:26:11.454Z,4.4
2022-10-01T02:28:06.566Z,4.5
2022-10-01T02:30:07.488Z,4.3
2022-10-01T02:32:03.164Z,4.9
2022-10-01T02:34:08.571Z,4.3
2022-10-01T02:36:06.522Z,4.6
2022-10-01T02:38:07.339Z,4.7
2022-10-01T02:40:04.874Z,4.4
2022-10-01T02:42:05.619Z,4.3
2022-10-01T02:44:07.005Z,4.6
2022-10-01T02:46:08.234Z,4.3
2022-10-01T02:48:06.989Z,4.4
2022-10-01T02:50:04.573Z,4.4
2022-10-01T02:52:12.914Z,4.8
2022-10-01T02:54:08.926Z,4.5
2022-10-01T02:56:04.468Z,4.0
2022-10-01T02:58:02.472Z,4.5
2022-10-01T03:00:06.166Z,4.5
2022-10-01T03:02:02.604Z,4.2
2022-10-01T03:04:03.443Z,4.3
2022-10-01T03:06:02.147Z,4.3
2022-10-01T03:08:02.291Z,4.1
2022-10-01T03:10:03.720Z,4.4
2022-10-01T03:12:02.640Z,4.3
2022-10-01T03:14:03.853Z,4.2
2022-10-01T03:16:02.696Z,4.3
2022-10-01T03:18:02.783Z,4.4
2022-10-01T03:20:02.333Z,4.2
2022-10-01T03:22:02.608Z,4.1
2022-10-01T03:24:02.351Z,4.5
2022-10-01T03:26:02.373Z,4.1
2022-10-01T03:28:02.628Z,4.4
2022-10-01T03:30:03.270Z,4.5
2022-10-01T03:32:02.170Z,3.9
2022-10-01T03:34:03.450Z,3.9
2022-10-01T03:36:03.191Z,4.2
2022-10-01T03:38:03.490Z,4.0
2022-10-01T03:40:03.102Z,4.1
2022-10-01T03:42:03.415Z,4.3
2022-10-01T03:44:02.358Z,3.9
2022-10-01T03:46:02.648Z,4.7
2022-10-01T03:48:02.287Z,4.4
2022-10-01T03:50:02.423Z,4.2
2022-10-01T03:52:04.000Z,4.1
2022-10-01T03:54:02.233Z,4.2
2022-10-01T03:56:02.426Z,4.4
2022-10-01T03:58:02.418Z,4.3
2022-10-01T04:00:02.330Z,4.3
2022-10-01T04:02:02.585Z,4.2
2022-10-01T04:04:03.733Z,4.3
2022-10-01T04:06:02.771Z,4.1
2022-10-01T04:08:02.204Z,4.1
2022-10-01T04:10:02.179Z,4.4
2022-10-01T04:12:02.441Z,4.1
2022-10-01T04:14:02.412Z,4.9
2022-10-01T04:16:02.717Z,4.4
2022-10-01T04:18:05.801Z,4.5
2022-10-01T04:20:02.320Z,4.4
2022-10-01T04:22:02.258Z,4.6
2022-10-01T04:24:04.741Z,5.3
2022-10-01T04:26:03.703Z,5.0
2022-10-01T04:28:05.004Z,5.4
2022-10-01T04:30:03.641Z,5.3
2022-10-01T04:32:03.108Z,5.3
2022-10-01T04:34:02.814Z,5.3
2022-10-01T04:36:02.657Z,5.7
2022-10-01T04:38:04.755Z,5.2
2022-10-01T04:40:02.454Z,5.1
2022-10-01T04:42:02.287Z,5.1
2022-10-01T04:44:02.340Z,5.1
2022-10-01T04:46:02.240Z,5.0
2022-10-01T04:48:02.633Z,5.7
2022-10-01T04:50:03.121Z,5.2
2022-10-01T04:52:02.714Z,5.2
2022-10-01T04:54:02.818Z,5.3
2022-10-01T04:56:02.305Z,5.0
2022-10-01T04:58:02.743Z,5.1
2022-10-01T05:00:04.109Z,4.9
2022-10-01T05:02:02.452Z,5.0
2022-10-01T05:04:02.956Z,4.9
2022-10-01T05:06:02.145Z,5.2
2022-10-01T05:08:03.368Z,5.2
2022-10-01T05:10:02.295Z,5.2
2022-10-01T05:12:02.452Z,5.2
2022-10-01T05:14:02.607Z,5.1
2022-10-01T05:16:03.400Z,5.3
2022-10-01T05:18:02.211Z,5.4
2022-10-01T05:20:04.335Z,5.0
2022-10-01T05:22:02.262Z,5.3
2022-10-01T05:24:02.403Z,5.2
2022-10-01T05:26:05.310Z,5.3
2022-10-01T05:28:05.063Z,5.2
2022-10-01T05:30:02.707Z,5.4
2022-10-01T05:32:02.256Z,5.3
2022-10-01T05:34:02.169Z,4.8
2022-10-01T05:36:04.725Z,4.7
2022-10-01T05:38:03.420Z,5.3
2022-10-01T05:40:03.879Z,5.1
2022-10-01T05:42:06.175Z,4.8
2022-10-01T05:44:02.747Z,5.7
2022-10-01T05:46:02.701Z,5.4
2022-10-01T05:48:05.340Z,5.3
2022-10-01T05:50:02.375Z,5.2
2022-10-01T05:52:02.852Z,5.3
2022-10-01T05:54:03.638Z,5.9
2022-10-01T05:56:02.674Z,5.6
2022-10-01T05:58:04.746Z,5.4
2022-10-01T06:00:02.827Z,5.6
2022-10-01T06:02:03.558Z,5.4
2022-10-01T06:04:02.573Z,5.0
2022-10-01T06:06:05.030Z,5.5
2022-10-01T06:08:05.140Z,5.7
2022-10-01T06:10:02.236Z,5.3
2022-10-01T06:12:02.408Z,5.5
2022-10-01T06:14:03.024Z,5.1
2022-10-01T06:16:02.416Z,5.4
2022-10-01T06:18:03.651Z,5.0
2022-10-01T06:20:02.189Z,5.0
2022-10-01T06:22:02.203Z,5.4
2022-10-01T06:24:02.465Z,5.3
2022-10-01T06:26:05.871Z,5.5
2022-10-01T06:28:05.461Z,5.1
2022-10-01T06:30:02.267Z,5.1
2022-10-01T06:32:02.801Z,5.3
2022-10-01T06:34:02.220Z,5.3
2022-10-01T06:36:04.626Z,5.7
2022-10-01T06:38:03.084Z,5.4
2022-10-01T06:40:02.217Z,5.6
2022-10-01T06:42:02.154Z,5.5
2022-10-01T06:44:02.244Z,5.3
2022-10-01T06:46:03.677Z,5.9
2022-10-01T06:48:02.783Z,5.9
2022-10-01T06:50:02.324Z,5.3
2022-10-01T06:52:11.881Z,5.1
2022-10-01T06:54:02.639Z,5.1
2022-10-01T06:56:07.809Z,5.2
2022-10-01T06:58:04.988Z,4.9
2022-10-01T07:00:02.340Z,5.4
2022-10-01T07:02:02.573Z,5.2
2022-10-01T07:04:03.232Z,5.5
2022-10-01T07:06:04.989Z,4.7
2022-10-01T07:08:02.225Z,5.4
2022-10-01T07:10:04.060Z,4.7
2022-10-01T07:12:02.983Z,5.0
2022-10-01T07:14:02.366Z,5.4
2022-10-01T07:16:03.684Z,4.9
2022-10-01T07:18:03.607Z,5.5
2022-10-01T07:20:02.929Z,5.7
2022-10-01T07:22:02.911Z,6.1
2022-10-01T07:24:02.301Z,6.5
2022-10-01T07:26:05.196Z,5.8
2022-10-01T07:28:04.790Z,5.5
2022-10-01T07:30:02.217Z,5.4
2022-10-01T07:32:03.709Z,5.7
2022-10-01T07:34:03.038Z,5.6
2022-10-01T07:36:04.534Z,5.5
2022-10-01T07:38:07.086Z,5.7
2022-10-01T07:40:07.199Z,5.9
2022-10-01T07:42:02.869Z,6.2
2022-10-01T07:44:03.018Z,6.3
2022-10-01T07:46:06.728Z,5.5
2022-10-01T07:48:04.091Z,5.8
2022-10-01T07:50:03.741Z,5.5
2022-10-01T07:52:02.525Z,5.5
2022-10-01T07:54:03.273Z,5.4
2022-10-01T07:56:03.065Z,6.0
2022-10-01T07:58:02.329Z,5.9
2022-10-01T08:00:02.496Z,5.4
2022-10-01T08:02:02.527Z,5.4
2022-10-01T08:04:11.856Z,5.4
2022-10-01T08:06:03.137Z,5.4
2022-10-01T08:08:05.530Z,5.6
2022-10-01T08:10:04.280Z,5.6
2022-10-01T08:12:02.623Z,5.9
2022-10-01T08:14:02.800Z,6.5
2022-10-01T08:16:05.893Z,5.9
2022-10-01T08:18:02.997Z,5.9
2022-10-01T08:20:02.277Z,6.1
2022-10-01T08:22:03.753Z,6.8
2022-10-01T08:24:02.528Z,6.7
2022-10-01T08:26:05.414Z,6.5
2022-10-01T08:28:03.290Z,6.3
2022-10-01T08:30:02.193Z,6.5
2022-10-01T08:32:03.123Z,6.0
2022-10-01T08:34:02.808Z,6.3
2022-10-01T08:36:02.590Z,5.9
2022-10-01T08:38:03.702Z,5.7
2022-10-01T08:40:03.237Z,6.1
2022-10-01T08:42:08.804Z,6.1
2022-10-01T08:44:05.554Z,5.9
2022-10-01T08:46:04.780Z,5.3
2022-10-01T08:48:10.693Z,5.5
2022-10-01T08:50:08.324Z,5.8
2022-10-01T08:52:06.179Z,6.1
2022-10-01T08:54:09.073Z,5.7
2022-10-01T08:56:04.058Z,5.6
2022-10-01T08:58:05.598Z,6.5
2022-10-01T09:00:07.438Z,6.0
2022-10-01T09:02:02.857Z,5.8
2022-10-01T09:04:02.607Z,6.0
2022-10-01T09:06:18.106Z,6.8
2022-10-01T09:08:16.097Z,6.4
2022-10-01T09:10:16.968Z,5.3
2022-10-01T09:12:16.565Z,5.6
2022-10-01T09:14:17.614Z,5.9
2022-10-01T09:16:12.102Z,6.4
2022-10-01T09:18:11.912Z,7.1
2022-10-01T09:20:10.763Z,6.3
2022-10-01T09:22:10.641Z,6.5
2022-10-01T09:24:08.592Z,6.8
2022-10-01T09:26:02.648Z,6.8
2022-10-01T09:28:10.748Z,6.9
2022-10-01T09:30:07.476Z,5.7
2022-10-01T09:32:05.629Z,6.5
2022-10-01T09:34:04.539Z,6.4
2022-10-01T09:36:14.886Z,6.2
2022-10-01T09:38:06.913Z,6.7
2022-10-01T09:40:15.446Z,6.3
2022-10-01T09:42:03.150Z,6.6
2022-10-01T09:44:03.466Z,7.0
2022-10-01T09:46:12.750Z,5.8
2022-10-01T09:48:14.312Z,6.4
2022-10-01T09:50:06.030Z,5.8
2022-10-01T09:52:06.814Z,5.9
2022-10-01T09:54:12.528Z,6.7
2022-10-01T09:56:08.341Z,6.4
2022-10-01T09:58:08.960Z,6.7
2022-10-01T10:00:09.472Z,6.3
2022-10-01T10:02:07.969Z,6.0
2022-10-01T10:04:02.160Z,6.6
2022-10-01T10:06:02.231Z,6.6
2022-10-01T10:08:11.088Z,6.7
2022-10-01T10:10:10.147Z,6.5
2022-10-01T10:12:03.417Z,7.3
2022-10-01T10:14:04.144Z,6.9
2022-10-01T10:16:15.755Z,6.3
2022-10-01T10:18:07.953Z,7.3
2022-10-01T10:20:11.476Z,6.9
2022-10-01T10:22:12.668Z,6.8
2022-10-01T10:24:04.773Z,7.1
2022-10-01T10:26:04.876Z,6.4
2022-10-01T10:28:03.134Z,6.6
2022-10-01T10:30:08.160Z,6.3
2022-10-01T10:32:07.451Z,6.9
2022-10-01T10:34:08.043Z,6.6
2022-10-01T10:36:05.755Z,6.2
2022-10-01T10:38:03.072Z,7.1
2022-10-01T10:40:03.407Z,6.6
2022-10-01T10:42:05.259Z,8.3
2022-10-01T10:44:06.315Z,7.5
2022-10-01T10:46:03.506Z,7.0
2022-10-01T10:48:04.705Z,7.1
2022-10-01T10:50:05.812Z,6.8
2022-10-01T10:52:02.946Z,7.0
2022-10-01T10:54:02.466Z,6.5
2022-10-01T10:56:05.454Z,8.2
2022-10-01T10:58:12.278Z,8.0
2022-10-01T11:00:12.813Z,7.2
2022-10-01T11:02:06.124Z,7.1
2022-10-01T11:04:02.500Z,8.0
2022-10-01T11:06:09.578Z,7.3
2022-10-01T11:08:05.160Z,7.4
2022-10-01T11:10:15.613Z,6.5
2022-10-01T11:12:12.298Z,7.2
2022-10-01T11:14:11.429Z,6.2
2022-10-01T11:16:21.903Z,6.6
2022-10-01T11:18:16.111Z,7.2
2022-10-01T11:20:20.582Z,8.0
2022-10-01T11:22:21.378Z,9.1
2022-10-01T11:24:21.925Z,7.7
2022-10-01T11:26:16.113Z,7.3
2022-10-01T11:28:14.365Z,7.3
2022-10-01T11:30:08.763Z,8.1
2022-10-01T11:32:18.996Z,7.3
2022-10-01T11:34:19.025Z,7.4
2022-10-01T11:36:10.455Z,8.7
2022-10-01T11:38:20.518Z,7.6
2022-10-01T11:40:12.826Z,8.0
2022-10-01T11:42:08.054Z,7.8
2022-10-01T11:44:07.657Z,8.1
2022-10-01T11:46:09.769Z,7.4
2022-10-01T11:48:07.685Z,7.4
2022-10-01T11:50:07.865Z,8.6
2022-10-01T11:52:13.373Z,9.1
2022-10-01T11:54:09.127Z,8.3
2022-10-01T11:56:16.686Z,7.6
2022-10-01T11:58:22.846Z,8.5
2022-10-01T12:00:07.659Z,7.3
2022-10-01T12:02:14.989Z,7.8
2022-10-01T12:04:06.604Z,7.0
2022-10-01T12:06:07.011Z,7.9
2022-10-01T12:08:08.874Z,7.9
2022-10-01T12:10:14.318Z,7.4
2022-10-01T12:12:07.453Z,7.9
2022-10-01T12:14:10.505Z,8.5
2022-10-01T12:16:08.282Z,8.2
2022-10-01T12:18:06.727Z,8.0
2022-10-01T12:20:12.305Z,8.2
2022-10-01T12:22:09.866Z,7.1
2022-10-01T12:24:06.593Z,6.6
2022-10-01T12:26:09.117Z,6.9
2022-10-01T12:28:10.926Z,7.5
2022-10-01T12:30:08.479Z,8.1
2022-10-01T12:32:15.779Z,8.9
2022-10-01T12:34:13.949Z,8.7
2022-10-01T12:36:11.128Z,7.7
2022-10-01T12:38:13.515Z,7.2
2022-10-01T12:40:18.692Z,7.9
2022-10-01T12:42:11.603Z,8.0
2022-10-01T12:44:13.487Z,7.9
2022-10-01T12:46:12.537Z,6.9
2022-10-01T12:48:10.258Z,6.9
2022-10-01T12:50:14.189Z,7.3
2022-10-01T12:52:11.959Z,7.3
2022-10-01T12:54:13.508Z,7.4
2022-10-01T12:56:13.032Z,7.3
2022-10-01T12:58:12.764Z,7.0
2022-10-01T13:00:10.993Z,6.5
2022-10-01T13:02:19.219Z,6.2
2022-10-01T13:04:21.313Z,6.2
2022-10-01T13:06:19.339Z,7.3
2022-10-01T13:08:14.644Z,7.3
2022-10-01T13:10:13.186Z,7.0
2022-10-01T13:12:15.319Z,7.4
2022-10-01T13:14:03.855Z,7.9
2022-10-01T13:16:09.644Z,7.3
2022-10-01T13:18:15.790Z,7.5
2022-10-01T13:20:13.783Z,8.0
2022-10-01T13:22:14.086Z,7.7
2022-10-01T13:24:09.398Z,6.9
2022-10-01T13:26:08.734Z,8.1
2022-10-01T13:28:13.051Z,7.3
2022-10-01T13:30:13.845Z,8.0
2022-10-01T13:32:04.242Z,9.2
2022-10-01T13:34:02.902Z,10.3
2022-10-01T13:36:04.931Z,9.0
2022-10-01T13:38:12.490Z,9.4
2022-10-01T13:40:04.407Z,9.0
2022-10-01T13:42:05.465Z,9.9
2022-10-01T13:44:21.483Z,8.8
2022-10-01T13:46:09.324Z,8.7
2022-10-01T13:48:11.923Z,7.7
2022-10-01T13:50:05.234Z,7.5
2022-10-01T13:52:02.894Z,8.8
2022-10-01T13:54:06.679Z,9.9
2022-10-01T13:56:04.018Z,10.0
2022-10-01T13:58:03.600Z,11.0
2022-10-01T14:00:15.989Z,10.0
2022-10-01T14:02:03.320Z,11.0
2022-10-01T14:04:15.360Z,10.7
2022-10-01T14:06:06.686Z,10.0
2022-10-01T14:08:12.901Z,10.9
2022-10-01T14:10:03.402Z,10.1
2022-10-01T14:12:15.685Z,8.4
2022-10-01T14:14:20.731Z,8.4
2022-10-01T14:16:04.158Z,8.6
2022-10-01T14:18:07.176Z,9.2
2022-10-01T14:20:03.812Z,9.3
2022-10-01T14:22:13.833Z,8.6
2022-10-01T14:24:12.371Z,8.4
2022-10-01T14:26:13.054Z,7.3
2022-10-01T14:28:13.701Z,7.9
2022-10-01T14:30:10.537Z,7.0
2022-10-01T14:32:15.087Z,9.4
2022-10-01T14:34:19.211Z,7.2
2022-10-01T14:36:10.276Z,7.7
2022-10-01T14:38:11.277Z,7.9
2022-10-01T14:40:13.203Z,8.1
2022-10-01T14:42:16.644Z,7.6
2022-10-01T14:44:02.412Z,7.8
2022-10-01T14:46:05.167Z,8.1
2022-10-01T14:48:04.333Z,6.3
2022-10-01T14:50:10.931Z,7.4
2022-10-01T14:52:05.517Z,7.0
2022-10-01T14:54:02.221Z,6.9
2022-10-01T14:56:07.895Z,8.1
2022-10-01T14:58:04.758Z,6.9
2022-10-01T15:00:08.506Z,7.2
2022-10-01T15:02:04.464Z,6.8
2022-10-01T15:04:02.445Z,7.8
2022-10-01T15:06:04.653Z,7.5
2022-10-01T15:08:10.349Z,11.1
2022-10-01T15:10:09.859Z,10.6
2022-10-01T15:12:05.574Z,12.1
2022-10-01T15:14:05.911Z,9.4
2022-10-01T15:16:03.565Z,10.1
2022-10-01T15:18:04.766Z,9.9
2022-10-01T15:20:02.882Z,8.4
2022-10-01T15:22:03.214Z,8.5
2022-10-01T15:24:04.564Z,10.2
2022-10-01T15:26:06.946Z,8.5
2022-10-01T15:28:02.326Z,8.3
2022-10-01T15:30:02.276Z,8.4
2022-10-01T15:32:03.514Z,10.1
2022-10-01T15:34:05.128Z,11.4
2022-10-01T15:36:05.499Z,9.8
2022-10-01T15:38:02.531Z,10.0
2022-10-01T15:40:04.999Z,11.6
2022-10-01T15:42:08.422Z,12.6
2022-10-01T15:44:04.140Z,8.2
2022-10-01T15:46:17.088Z,8.2
2022-10-01T15:48:02.757Z,9.7
2022-10-01T15:50:20.591Z,9.1
2022-10-01T15:52:13.790Z,8.5
2022-10-01T15:54:08.521Z,8.6
2022-10-01T15:56:10.500Z,8.8
2022-10-01T15:58:08.642Z,7.9
2022-10-01T16:00:02.274Z,8.3
2022-10-01T16:02:10.070Z,7.6
2022-10-01T16:04:06.669Z,8.6
2022-10-01T16:06:04.967Z,7.9
2022-10-01T16:08:02.522Z,8.6
2022-10-01T16:10:14.862Z,11.2
2022-10-01T16:12:06.366Z,9.9
2022-10-01T16:14:20.861Z,9.2
2022-10-01T16:16:19.075Z,8.9
2022-10-01T16:18:02.723Z,9.5
2022-10-01T16:20:21.759Z,8.6
2022-10-01T16:22:14.482Z,7.8
2022-10-01T16:24:02.285Z,7.8
2022-10-01T16:26:02.262Z,8.0
2022-10-01T16:28:05.531Z,7.6
2022-10-01T16:30:11.566Z,9.2
2022-10-01T16:32:03.172Z,8.2
2022-10-01T16:34:02.449Z,8.0
2022-10-01T16:36:19.412Z,7.0
2022-10-01T16:38:06.212Z,7.9
2022-10-01T16:40:02.478Z,7.0
2022-10-01T16:42:22.704Z,6.5
2022-10-01T16:44:05.329Z,7.7
2022-10-01T16:46:02.519Z,6.9
2022-10-01T16:48:09.675Z,7.4
2022-10-01T16:50:02.782Z,7.3
2022-10-01T16:52:03.250Z,6.7
2022-10-01T16:54:02.222Z,7.4
2022-10-01T16:56:02.591Z,7.4
2022-10-01T16:58:03.641Z,8.1
2022-10-01T17:00:02.245Z,6.5
2022-10-01T17:02:02.604Z,6.7
2022-10-01T17:04:02.334Z,6.7
2022-10-01T17:06:02.322Z,6.7
2022-10-01T17:08:10.729Z,7.7
2022-10-01T17:10:02.404Z,7.7
2022-10-01T17:12:02.237Z,11.3
2022-10-01T17:14:02.729Z,12.5
2022-10-01T17:16:04.621Z,12.4
2022-10-01T17:18:02.173Z,10.7
2022-10-01T17:20:03.084Z,12.0
2022-10-01T17:22:02.780Z,8.3
2022-10-01T17:24:02.672Z,6.4
2022-10-01T17:26:05.171Z,5.9
2022-10-01T17:28:04.673Z,7.7
2022-10-01T17:30:02.790Z,8.2
2022-10-01T17:32:03.600Z,6.9
2022-10-01T17:34:03.668Z,6.4
2022-10-01T17:36:07.080Z,5.5
2022-10-01T17:38:02.136Z,5.9
2022-10-01T17:40:02.811Z,7.1
2022-10-01T17:42:02.174Z,6.4
2022-10-01T17:44:02.316Z,6.0
2022-10-01T17:46:02.694Z,6.6
2022-10-01T17:48:02.223Z,7.4
2022-10-01T17:50:03.762Z,9.1
2022-10-01T17:52:02.359Z,8.8
2022-10-01T17:54:04.191Z,9.8
2022-10-01T17:56:05.617Z,8.1
2022-10-01T17:58:02.970Z,6.5
2022-10-01T18:00:02.664Z,5.6
2022-10-01T18:02:13.913Z,6.1
2022-10-01T18:04:05.182Z,5.9
2022-10-01T18:06:03.691Z,7.1
2022-10-01T18:08:02.743Z,7.2
2022-10-01T18:10:02.544Z,7.0
2022-10-01T18:12:03.461Z,8.0
2022-10-01T18:14:02.241Z,15.1
2022-10-01T18:16:04.807Z,20.0
2022-10-01T18:19:24.364Z,24.2
2022-10-01T18:20:02.945Z,38.1
2022-10-01T18:22:11.849Z,38.1
2022-10-01T18:24:04.688Z,41.7
2022-10-01T18:26:02.928Z,41.5
2022-10-01T18:28:02.540Z,42.1
2022-10-01T18:30:02.249Z,44.7
2022-10-01T18:32:12.114Z,41.3
2022-10-01T18:34:05.944Z,41.2
2022-10-01T18:36:04.090Z,41.5
2022-10-01T18:38:10.204Z,38.0
2022-10-01T18:40:08.161Z,36.1
2022-10-01T18:42:13.756Z,34.9
2022-10-01T18:44:02.718Z,31.7
2022-10-01T18:46:12.784Z,27.8
2022-10-01T18:48:17.369Z,24.9
2022-10-01T18:50:17.528Z,23.7
2022-10-01T18:52:17.191Z,20.2
2022-10-01T18:54:19.282Z,22.1
2022-10-01T18:56:20.950Z,21.0
2022-10-01T18:58:14.732Z,21.4
2022-10-01T19:00:11.006Z,19.0
2022-10-01T19:02:20.023Z,18.7
2022-10-01T19:04:21.289Z,19.1
2022-10-01T19:06:21.242Z,20.2
2022-10-01T19:08:14.583Z,18.4
2022-10-01T19:10:13.123Z,18.7
2022-10-01T19:12:19.841Z,19.1
2022-10-01T19:14:18.494Z,20.2
2022-10-01T19:16:09.281Z,20.6
2022-10-01T19:18:13.773Z,22.1
2022-10-01T19:20:17.226Z,24.2
2022-10-01T19:22:14.380Z,25.2
2022-10-01T19:24:21.274Z,25.4
2022-10-01T19:26:10.508Z,25.6
2022-10-01T19:28:17.738Z,27.8
2022-10-01T19:30:07.229Z,28.1
2022-10-01T19:32:07.478Z,26.2
2022-10-01T19:34:09.686Z,27.5
2022-10-01T19:36:04.787Z,24.3
2022-10-01T19:38:06.540Z,23.3
2022-10-01T19:40:13.113Z,22.0
2022-10-01T19:42:06.827Z,21.8
2022-10-01T19:44:09.382Z,22.1
2022-10-01T19:46:11.608Z,20.5
2022-10-01T19:48:10.607Z,22.6
2022-10-01T19:50:12.257Z,23.0
2022-10-01T19:52:09.950Z,23.1
2022-10-01T19:54:03.485Z,22.9
2022-10-01T19:56:03.919Z,25.6
2022-10-01T19:58:08.861Z,25.0
2022-10-01T20:00:09.879Z,27.0
2022-10-01T20:02:13.747Z,26.1
2022-10-01T20:04:11.377Z,25.5
2022-10-01T20:06:07.148Z,25.4
2022-10-01T20:08:13.569Z,24.4
2022-10-01T20:10:07.862Z,23.3
2022-10-01T20:12:14.476Z,23.0
2022-10-01T20:14:25.834Z,24.2
2022-10-01T20:16:14.259Z,23.0
2022-10-01T20:18:16.467Z,22.0
2022-10-01T20:20:13.375Z,20.9
2022-10-01T20:22:10.605Z,20.5
2022-10-01T20:24:14.384Z,20.4
2022-10-01T20:26:08.417Z,22.6
2022-10-01T20:28:10.580Z,23.2
2022-10-01T20:30:06.951Z,20.7
2022-10-01T20:32:10.248Z,21.6
2022-10-01T20:34:09.020Z,22.4
2022-10-01T20:36:11.089Z,22.6
2022-10-01T20:38:07.150Z,22.9
2022-10-01T20:40:06.613Z,21.1
2022-10-01T20:42:04.213Z,21.0
2022-10-01T20:44:05.367Z,20.9
2022-10-01T20:46:09.168Z,21.6
2022-10-01T20:48:11.382Z,21.2
2022-10-01T20:50:09.339Z,21.9
2022-10-01T20:52:11.186Z,20.2
2022-10-01T20:54:08.106Z,21.2
2022-10-01T20:56:10.721Z,21.2
2022-10-01T20:58:10.922Z,20.4
2022-10-01T21:00:08.179Z,19.9
2022-10-01T21:02:06.729Z,20.2
2022-10-01T21:04:08.880Z,19.5
2022-10-01T21:06:11.333Z,20.4
2022-10-01T21:08:07.490Z,20.3
2022-10-01T21:10:06.266Z,22.2
2022-10-01T21:12:10.560Z,21.6
2022-10-01T21:14:11.642Z,20.4
2022-10-01T21:16:15.815Z,20.4
2022-10-01T21:18:11.582Z,19.7
2022-10-01T21:20:20.565Z,19.2
2022-10-01T21:22:20.189Z,19.7
2022-10-01T21:24:21.226Z,19.4
2022-10-01T21:26:13.018Z,19.9
2022-10-01T21:28:15.357Z,20.6
2022-10-01T21:30:07.092Z,21.1
2022-10-01T21:32:15.460Z,21.6
2022-10-01T21:34:09.629Z,20.1
2022-10-01T21:36:10.941Z,19.8
2022-10-01T21:38:10.704Z,21.7
2022-10-01T21:40:12.427Z,22.0
2022-10-01T21:42:15.298Z,22.2
2022-10-01T21:44:20.989Z,24.7
2022-10-01T21:46:13.534Z,23.4
2022-10-01T21:48:15.834Z,21.1
2022-10-01T21:50:14.980Z,21.5
2022-10-01T21:52:13.425Z,23.0
2022-10-01T21:54:21.646Z,23.4
2022-10-01T21:56:16.323Z,23.6
2022-10-01T21:58:13.279Z,22.4
2022-10-01T22:00:17.521Z,20.2
2022-10-01T22:02:13.544Z,18.4
2022-10-01T22:04:11.831Z,16.2
2022-10-01T22:06:14.532Z,16.2
2022-10-01T22:08:15.504Z,16.0
2022-10-01T22:10:10.363Z,15.1
2022-10-01T22:12:05.813Z,15.1
2022-10-01T22:14:05.066Z,14.3
2022-10-01T22:16:07.799Z,14.8
2022-10-01T22:18:06.553Z,13.6
2022-10-01T22:20:06.464Z,13.5
2022-10-01T22:22:07.835Z,15.4
2022-10-01T22:24:07.456Z,13.8
2022-10-01T22:26:10.321Z,14.3
2022-10-01T22:28:06.532Z,12.5
2022-10-01T22:30:09.225Z,11.5
2022-10-01T22:32:04.801Z,11.5
2022-10-01T22:34:08.221Z,11.4
2022-10-01T22:36:08.004Z,12.2
2022-10-01T22:38:10.655Z,12.2
2022-10-01T22:40:10.580Z,11.8
2022-10-01T22:42:08.965Z,12.1
2022-10-01T22:44:12.077Z,11.9
2022-10-01T22:46:20.950Z,11.5
2022-10-01T22:48:15.275Z,11.5
2022-10-01T22:50:13.890Z,11.1
2022-10-01T22:52:15.608Z,11.3
2022-10-01T22:54:19.975Z,11.3
2022-10-01T22:56:02.373Z,11.1
2022-10-01T22:58:18.011Z,11.0
2022-10-01T23:00:08.108Z,10.7
2022-10-01T23:02:12.282Z,10.9
2022-10-01T23:04:18.581Z,11.0
2022-10-01T23:06:09.218Z,10.3
2022-10-01T23:08:11.741Z,10.8
2022-10-01T23:10:09.552Z,10.7
2022-10-01T23:12:10.926Z,10.4
2022-10-01T23:14:13.839Z,10.6
2022-10-01T23:16:07.976Z,10.2
2022-10-01T23:18:14.829Z,10.7
2022-10-01T23:20:11.648Z,10.2
2022-10-01T23:22:09.208Z,10.7
2022-10-01T23:24:13.719Z,10.5
2022-10-01T23:26:19.823Z,9.9
2022-10-01T23:28:13.638Z,10.1
2022-10-01T23:30:09.650Z,10.0
2022-10-01T23:32:16.781Z,10.0
2022-10-01T23:34:14.241Z,10.1
2022-10-01T23:36:08.625Z,9.9
2022-10-01T23:38:14.661Z,9.9
2022-10-01T23:40:07.900Z,9.5
2022-10-01T23:42:13.931Z,10.4
2022-10-01T23:44:12.582Z,10.1
2022-10-01T23:46:06.121Z,10.1
2022-10-01T23:48:10.576Z,9.8
2022-10-01T23:50:06.238Z,10.1
2022-10-01T23:52:08.387Z,9.9
2022-10-01T23:54:10.930Z,10.1
2022-10-01T23:56:17.253Z,9.7
2022-10-01T23:58:04.226Z,10.0
